This is the latest recevied weather packets stored in our database for station/object JE7UPL-13. If no packets are shown the sender has not sent any weather packets the latest 10 day(s).
| Time | Temp. | Humidity | Pressure | Rain* | Wind** | Luminosity | Snow |
|---|---|---|---|---|---|---|---|
| 1788334207 | 26.11° C | 80% | 1007.2 hPa | 0 mm | - | - | - |
| 1788333306 | 25.56° C | 81% | 1007.1 hPa | 0 mm | - | - | - |
| 1788332407 | 26.11° C | 79% | 1007 hPa | 0 mm | - | - | - |
| 1788331506 | 27.22° C | 76% | 1006.8 hPa | 0 mm | - | - | - |
| 1788330607 | 26.67° C | 77% | 1006.4 hPa | 0 mm | - | - | - |
| 1788329706 | 26.67° C | 79% | 1006.3 hPa | 0 mm | - | - | - |
| 1788323408 | 26.11° C | 79% | 1006.8 hPa | 0 mm | - | - | - |
| 1788301807 | 23.33° C | 97% | 1007.6 hPa | 0 mm | - | - | - |
| 1788300906 | 22.22° C | 95% | 1007.3 hPa | 0 mm | - | - | - |
| 1788300007 | 22.22° C | 95% | 1007.6 hPa | 0 mm | - | - | - |
| 1788298207 | 22.22° C | 95% | 1007.4 hPa | 0 mm | - | - | - |
| 1788295507 | 22.22° C | 95% | 1007.2 hPa | 0 mm | - | - | - |
| 1788294607 | 22.22° C | 95% | 1007.2 hPa | 0 mm | - | - | - |
| 1788293706 | 22.22° C | 95% | 1007.2 hPa | 0 mm | - | - | - |
| 1788288307 | 21.67° C | 95% | 1007.9 hPa | 0 mm | - | - | - |
| 1788287407 | 21.67° C | 95% | 1008 hPa | 0 mm | - | - | - |
| 1788286506 | 21.11° C | 95% | 1008 hPa | 0 mm | - | - | - |
| 1788283807 | 20.56° C | 95% | 1008.4 hPa | 0 mm | - | - | - |
| 1788282906 | 20.56° C | 94% | 1007.5 hPa | 0 mm | - | - | - |
| 1788280208 | 20.56° C | 93% | 1008.1 hPa | 0 mm | - | - | - |
| 1788279307 | 20.56° C | 93% | 1007.5 hPa | 0 mm | - | - | - |
| 1788278407 | 20.56° C | 93% | 1007.9 hPa | 0 mm | - | - | - |
| 1788277506 | 20.56° C | 92% | 1007.6 hPa | 0 mm | - | - | - |
| 1788276607 | 20.56° C | 91% | 1007.6 hPa | 0 mm | - | - | - |
| 1788273907 | 21.11° C | 85% | 1008.1 hPa | 0 mm | - | - | - |
* Rain latest hour (hover to see other rain measurements)
** Current wind speed in m/s (hover to see current wind gust speed)